Alma, Kansas
Current Conditions -  °F | °C
As of 2:52 AM on Thursday 23 Oct 2014 (Local Time) from KMHK Reporting Station
Light Rain Light Rain  
Wind Chill: 62°   Ceiling: 5000
Heat Index: 62°   Visibility: 4mi
Dew Point: 61°   Wind: 0mph
Humidity: 96%   Direction: NA
Pressure: 30.07"   Gusts: NA
Location:  39.02°N, 96.29°W
Report Text: KMHK 230752Z AUTO 00000KT 4SM -RA BR FEW031 OVC050 17/16 A3007 RMK AO2 SLP176 P0011 T01670161 TSNO
Loading
Personal Weather Stations






























Interactive Weather Map New forecast layout! Learn more

10-Day Weather Forecast

Advertisements
Track Severe Weather on mobile